createdAt,value
2022-08-03T00:00:43.687Z,0.00
2022-08-03T00:01:43.684Z,0.00
2022-08-03T00:02:43.703Z,0.00
2022-08-03T00:03:43.666Z,0.00
2022-08-03T00:04:43.685Z,0.00
2022-08-03T00:06:04.739Z,0.00
2022-08-03T00:06:44.640Z,0.00
2022-08-03T00:07:43.629Z,0.00
2022-08-03T00:08:43.618Z,0.00
2022-08-03T00:09:43.638Z,0.00
2022-08-03T00:10:43.602Z,0.00
2022-08-03T00:11:43.601Z,0.00
2022-08-03T00:12:43.591Z,0.00
2022-08-03T00:13:43.584Z,0.00
2022-08-03T00:14:43.612Z,0.00
2022-08-03T00:15:43.575Z,0.00
2022-08-03T00:16:43.564Z,0.00
2022-08-03T00:17:52.486Z,0.00
2022-08-03T00:18:44.549Z,0.00
2022-08-03T00:19:43.566Z,0.00
2022-08-03T00:20:43.530Z,0.00
2022-08-03T00:21:43.525Z,0.00
2022-08-03T00:22:43.516Z,0.00
2022-08-03T00:23:51.516Z,0.00
2022-08-03T00:24:44.520Z,0.00
2022-08-03T00:25:43.491Z,0.00
2022-08-03T00:26:43.494Z,0.00
2022-08-03T00:27:43.480Z,0.00
2022-08-03T00:28:43.459Z,0.00
2022-08-03T00:29:59.948Z,0.00
2022-08-03T00:30:44.447Z,0.00
2022-08-03T00:31:52.314Z,0.00
2022-08-03T00:32:45.236Z,0.00
2022-08-03T00:33:58.221Z,0.00
2022-08-03T00:34:57.753Z,0.00
2022-08-03T00:35:50.501Z,0.00
2022-08-03T00:36:44.400Z,0.00
2022-08-03T00:37:43.391Z,0.00
2022-08-03T00:38:43.391Z,0.00
2022-08-03T00:39:43.378Z,0.00
2022-08-03T00:40:43.396Z,0.00
2022-08-03T00:41:43.365Z,0.00
2022-08-03T00:42:43.357Z,0.00
2022-08-03T00:43:43.343Z,0.00
2022-08-03T00:44:44.333Z,0.00
2022-08-03T00:45:43.351Z,0.00
2022-08-03T00:46:43.320Z,0.00
2022-08-03T00:47:43.314Z,0.00
2022-08-03T00:48:43.305Z,0.00
2022-08-03T00:49:43.296Z,0.00
2022-08-03T00:50:43.311Z,0.00
2022-08-03T00:51:43.278Z,0.00
2022-08-03T00:52:43.275Z,0.00
2022-08-03T00:53:43.267Z,0.00
2022-08-03T00:54:43.258Z,0.00
2022-08-03T00:55:43.272Z,0.00
2022-08-03T00:56:59.739Z,0.00
2022-08-03T00:57:44.229Z,0.00
2022-08-03T00:58:43.225Z,0.00
2022-08-03T00:59:43.214Z,0.00
2022-08-03T01:00:43.232Z,0.00
2022-08-03T01:01:43.259Z,0.00
2022-08-03T01:02:43.197Z,0.00
2022-08-03T01:03:43.185Z,0.00
2022-08-03T01:04:43.175Z,0.00
2022-08-03T01:05:43.200Z,0.00
2022-08-03T01:06:43.157Z,0.00
2022-08-03T01:07:43.155Z,0.00
2022-08-03T01:08:43.146Z,0.00
2022-08-03T01:09:43.140Z,0.00
2022-08-03T01:10:43.160Z,0.00
2022-08-03T01:12:00.048Z,0.00
2022-08-03T01:12:44.114Z,0.00
2022-08-03T01:14:01.391Z,0.00
2022-08-03T01:14:44.095Z,0.00
2022-08-03T01:15:43.125Z,0.00
2022-08-03T01:16:43.088Z,0.00
2022-08-03T01:17:43.077Z,0.00
2022-08-03T01:18:43.072Z,0.00
2022-08-03T01:19:43.054Z,0.00
2022-08-03T01:20:43.074Z,0.00
2022-08-03T01:21:43.043Z,0.00
2022-08-03T01:22:43.032Z,0.00
2022-08-03T01:23:43.030Z,0.00
2022-08-03T01:24:43.018Z,0.00
2022-08-03T01:25:43.034Z,0.00
2022-08-03T01:26:42.997Z,0.00
2022-08-03T01:27:42.989Z,0.00
2022-08-03T01:28:42.984Z,0.00
2022-08-03T01:29:42.973Z,0.00
2022-08-03T01:30:42.991Z,0.00
2022-08-03T01:32:54.511Z,0.00
2022-08-03T01:32:58.152Z,0.00
2022-08-03T01:33:43.940Z,0.00
2022-08-03T01:34:42.937Z,0.00
2022-08-03T01:35:42.952Z,0.00
2022-08-03T01:36:42.918Z,0.00
2022-08-03T01:37:42.916Z,0.00
2022-08-03T01:38:42.903Z,0.00
2022-08-03T01:39:42.894Z,0.00
2022-08-03T01:40:42.910Z,0.00
2022-08-03T01:41:42.878Z,0.00
2022-08-03T01:42:42.871Z,0.00
2022-08-03T01:44:27.509Z,0.00
2022-08-03T01:44:43.851Z,0.00
2022-08-03T01:45:42.875Z,0.00
2022-08-03T01:46:49.025Z,0.00
2022-08-03T01:47:43.826Z,0.00
2022-08-03T01:48:42.821Z,0.00
2022-08-03T01:49:42.849Z,0.00
2022-08-03T01:50:42.837Z,0.00
2022-08-03T01:51:58.444Z,0.00
2022-08-03T01:52:43.786Z,0.00
2022-08-03T01:53:42.783Z,0.00
2022-08-03T01:54:42.771Z,0.00
2022-08-03T01:55:42.769Z,0.00
2022-08-03T01:56:42.783Z,0.00
2022-08-03T01:58:05.785Z,0.00
2022-08-03T01:58:43.743Z,0.00
2022-08-03T01:59:42.739Z,0.00
2022-08-03T02:00:42.803Z,0.00
2022-08-03T02:02:15.356Z,0.00
2022-08-03T02:02:43.865Z,0.00
2022-08-03T02:04:00.243Z,0.00
2022-08-03T02:04:43.704Z,0.00
2022-08-03T02:05:42.710Z,0.00
2022-08-03T02:07:00.305Z,0.00
2022-08-03T02:07:43.670Z,0.00
2022-08-03T02:08:42.665Z,0.00
2022-08-03T02:09:42.658Z,0.00
2022-08-03T02:10:42.675Z,0.00
2022-08-03T02:11:42.639Z,0.00
2022-08-03T02:12:43.987Z,0.00
2022-08-03T02:13:42.624Z,0.00
2022-08-03T02:14:42.615Z,0.00
2022-08-03T02:15:42.631Z,0.00
2022-08-03T02:16:42.607Z,0.00
2022-08-03T02:17:42.589Z,0.00
2022-08-03T02:18:42.584Z,0.00
2022-08-03T02:19:42.577Z,0.00
2022-08-03T02:20:42.601Z,0.00
2022-08-03T02:21:57.090Z,0.00
2022-08-03T02:22:43.552Z,0.00
2022-08-03T02:23:42.542Z,0.00
2022-08-03T02:24:42.536Z,0.00
2022-08-03T02:25:43.553Z,0.00
2022-08-03T02:26:42.526Z,0.00
2022-08-03T02:27:43.801Z,0.00
2022-08-03T02:28:43.507Z,0.00
2022-08-03T02:29:42.501Z,0.00
2022-08-03T02:30:42.522Z,0.00
2022-08-03T02:31:42.483Z,0.00
2022-08-03T02:32:42.480Z,0.00
2022-08-03T02:33:42.470Z,0.00
2022-08-03T02:34:42.471Z,0.00
2022-08-03T02:35:42.488Z,0.00
2022-08-03T02:36:42.450Z,0.00
2022-08-03T02:37:42.890Z,0.00
2022-08-03T02:38:42.428Z,0.00
2022-08-03T02:39:42.428Z,0.00
2022-08-03T02:40:42.410Z,0.00
2022-08-03T02:41:42.435Z,0.00
2022-08-03T02:42:42.401Z,0.00
2022-08-03T02:44:06.359Z,0.00
2022-08-03T02:44:43.386Z,0.00
2022-08-03T02:45:45.377Z,0.00
2022-08-03T02:46:43.393Z,0.00
2022-08-03T02:47:53.238Z,0.00
2022-08-03T02:48:43.403Z,0.00
2022-08-03T02:49:51.389Z,0.00
2022-08-03T02:50:43.332Z,0.00
2022-08-03T02:51:42.350Z,0.00
2022-08-03T02:52:42.322Z,0.00
2022-08-03T02:53:42.313Z,0.00
2022-08-03T02:54:42.317Z,0.00
2022-08-03T02:55:45.847Z,0.00
2022-08-03T02:56:42.314Z,0.00
2022-08-03T02:57:42.278Z,0.00
2022-08-03T02:58:42.267Z,0.00
2022-08-03T02:59:42.257Z,0.00
2022-08-03T03:00:42.310Z,0.00
2022-08-03T03:01:42.270Z,0.00
2022-08-03T03:02:44.002Z,0.00
2022-08-03T03:03:44.838Z,0.00
2022-08-03T03:05:52.990Z,0.00
2022-08-03T03:05:53.457Z,0.00
2022-08-03T03:06:43.241Z,0.00
2022-08-03T03:07:51.159Z,0.00
2022-08-03T03:08:43.194Z,0.00
2022-08-03T03:09:43.252Z,0.00
2022-08-03T03:10:42.173Z,0.00
2022-08-03T03:11:42.204Z,0.00
2022-08-03T03:12:42.159Z,0.00
2022-08-03T03:13:42.152Z,0.00
2022-08-03T03:14:42.145Z,0.00
2022-08-03T03:15:42.131Z,0.00
2022-08-03T03:16:42.126Z,0.00
2022-08-03T03:17:42.149Z,0.00
2022-08-03T03:18:42.116Z,0.00
2022-08-03T03:19:42.103Z,0.00
2022-08-03T03:20:42.096Z,0.00
2022-08-03T03:21:42.086Z,0.00
2022-08-03T03:22:43.529Z,0.00
2022-08-03T03:23:42.068Z,0.00
2022-08-03T03:24:42.066Z,0.00
2022-08-03T03:25:42.072Z,0.00
2022-08-03T03:26:42.451Z,0.00
2022-08-03T03:27:43.056Z,0.00
2022-08-03T03:28:43.023Z,0.00
2022-08-03T03:29:42.023Z,0.00
2022-08-03T03:30:42.022Z,0.00
2022-08-03T03:31:42.034Z,5.62
2022-08-03T03:32:41.991Z,5.62
2022-08-03T03:33:41.983Z,5.62
2022-08-03T03:34:41.984Z,5.62
2022-08-03T03:35:41.968Z,5.62
2022-08-03T03:36:42.003Z,5.62
2022-08-03T03:37:41.977Z,5.62
2022-08-03T03:38:41.947Z,11.25
2022-08-03T03:39:41.933Z,11.25
2022-08-03T03:40:41.930Z,11.25
2022-08-03T03:41:41.921Z,11.25
2022-08-03T03:42:41.945Z,11.25
2022-08-03T03:43:41.912Z,16.88
2022-08-03T03:44:42.807Z,16.88
2022-08-03T03:45:41.899Z,16.88
2022-08-03T03:46:41.896Z,16.88
2022-08-03T03:47:41.903Z,22.50
2022-08-03T03:48:41.864Z,22.50
2022-08-03T03:49:41.863Z,22.50
2022-08-03T03:50:41.859Z,28.12
2022-08-03T03:51:41.847Z,28.12
2022-08-03T03:52:41.860Z,33.75
2022-08-03T03:53:41.839Z,33.75
2022-08-03T03:54:41.815Z,39.38
2022-08-03T03:55:59.086Z,39.38
2022-08-03T03:56:42.805Z,45.00
2022-08-03T03:57:41.817Z,50.62
2022-08-03T03:58:41.786Z,50.62
2022-08-03T03:59:41.773Z,56.25
2022-08-03T04:00:41.817Z,56.25
2022-08-03T04:01:41.812Z,61.88
2022-08-03T04:02:41.757Z,67.50
2022-08-03T04:03:41.757Z,73.12
2022-08-03T04:04:41.740Z,73.12
2022-08-03T04:05:45.618Z,78.75
2022-08-03T04:06:42.751Z,84.38
2022-08-03T04:07:41.715Z,95.62
2022-08-03T04:08:41.709Z,140.62
2022-08-03T04:09:41.694Z,247.50
2022-08-03T04:10:41.696Z,382.50
2022-08-03T04:11:41.686Z,478.12
2022-08-03T04:12:50.412Z,517.50
2022-08-03T04:13:42.663Z,551.25
2022-08-03T04:14:41.652Z,590.62
2022-08-03T04:15:41.649Z,646.88
2022-08-03T04:16:43.870Z,691.88
2022-08-03T04:17:42.658Z,720.00
2022-08-03T04:18:41.626Z,765.00
2022-08-03T04:19:41.615Z,826.88
2022-08-03T04:20:41.594Z,860.62
2022-08-03T04:21:42.598Z,888.75
2022-08-03T04:22:41.619Z,916.88
2022-08-03T04:23:41.582Z,945.00
2022-08-03T04:24:41.585Z,1012.50
2022-08-03T04:25:41.569Z,1023.75
2022-08-03T04:26:41.571Z,1057.50
2022-08-03T04:27:41.585Z,1091.25
2022-08-03T04:28:41.570Z,1141.88
2022-08-03T04:29:46.445Z,1209.38
2022-08-03T04:30:42.536Z,1248.75
2022-08-03T04:31:41.531Z,1293.75
2022-08-03T04:32:45.714Z,1333.12
2022-08-03T04:33:42.513Z,1395.00
2022-08-03T04:34:41.499Z,1456.88
2022-08-03T04:36:01.657Z,1479.38
2022-08-03T04:36:42.485Z,1535.62
2022-08-03T04:37:41.507Z,1558.12
2022-08-03T04:38:41.474Z,1552.50
2022-08-03T04:39:41.466Z,1614.38
2022-08-03T04:40:41.463Z,1636.88
2022-08-03T04:42:07.891Z,1648.12
2022-08-03T04:42:42.467Z,1710.00
2022-08-03T04:43:41.439Z,1783.12
2022-08-03T04:44:41.424Z,1845.00
2022-08-03T04:45:41.418Z,1845.00
2022-08-03T04:46:41.435Z,1912.50
2022-08-03T04:47:42.438Z,1940.62
2022-08-03T04:48:44.623Z,1940.62
2022-08-03T04:49:42.431Z,1974.38
2022-08-03T04:50:41.380Z,2002.50
2022-08-03T04:51:41.372Z,2064.38
2022-08-03T04:52:41.388Z,2075.62
2022-08-03T04:53:41.356Z,2126.25
2022-08-03T04:54:41.350Z,2182.50
2022-08-03T04:55:41.343Z,2176.88
2022-08-03T04:56:41.340Z,2205.00
2022-08-03T04:57:41.348Z,2221.88
2022-08-03T04:58:42.323Z,2238.75
2022-08-03T04:59:41.314Z,2266.88
2022-08-03T05:00:41.359Z,2356.88
2022-08-03T05:01:41.347Z,2407.50
2022-08-03T05:02:41.318Z,2390.62
2022-08-03T05:03:41.282Z,2373.75
2022-08-03T05:04:41.273Z,2430.00
2022-08-03T05:05:49.787Z,2475.00
2022-08-03T05:06:48.224Z,2491.88
2022-08-03T05:07:42.286Z,2486.25
2022-08-03T05:08:47.237Z,2570.62
2022-08-03T05:09:50.538Z,2604.38
2022-08-03T05:10:42.233Z,2576.25
2022-08-03T05:11:41.225Z,2593.12
2022-08-03T05:12:41.242Z,2565.00
2022-08-03T05:13:41.262Z,2621.25
2022-08-03T05:14:41.204Z,2649.38
2022-08-03T05:15:42.919Z,2643.75
2022-08-03T05:16:41.190Z,2649.38
2022-08-03T05:17:41.216Z,2671.88
2022-08-03T05:18:41.170Z,2711.25
2022-08-03T05:19:41.170Z,2728.12
2022-08-03T05:20:41.159Z,2739.38
2022-08-03T05:21:52.006Z,2818.12
2022-08-03T05:22:42.198Z,2818.12
2022-08-03T05:23:41.140Z,2880.00
2022-08-03T05:24:41.135Z,2835.00
2022-08-03T05:25:41.122Z,2857.50
2022-08-03T05:26:42.123Z,2896.88
2022-08-03T05:27:41.141Z,2868.75
2022-08-03T05:28:50.611Z,2880.00
2022-08-03T05:29:42.094Z,2896.88
2022-08-03T05:30:41.091Z,2846.25
2022-08-03T05:31:41.089Z,2925.00
2022-08-03T05:32:41.112Z,2981.25
2022-08-03T05:33:41.072Z,2964.38
2022-08-03T05:34:41.073Z,2919.38
2022-08-03T05:35:56.017Z,2953.12
2022-08-03T05:36:42.062Z,3037.50
2022-08-03T05:37:41.052Z,3009.38
2022-08-03T05:38:42.079Z,2970.00
2022-08-03T05:39:41.038Z,2936.25
2022-08-03T05:40:41.027Z,2958.75
2022-08-03T05:41:42.025Z,2981.25
2022-08-03T05:42:41.010Z,2812.50
2022-08-03T05:43:41.042Z,2756.25
2022-08-03T05:44:40.995Z,3088.12
2022-08-03T05:45:40.991Z,3037.50
2022-08-03T05:46:40.995Z,3054.38
2022-08-03T05:47:40.986Z,3031.88
2022-08-03T05:48:41.005Z,3015.00
2022-08-03T05:49:41.027Z,3054.38
2022-08-03T05:50:42.879Z,3116.25
2022-08-03T05:51:41.958Z,3060.00
2022-08-03T05:52:40.947Z,3093.75
2022-08-03T05:53:40.975Z,3110.62
2022-08-03T05:54:56.341Z,3060.00
2022-08-03T05:55:41.926Z,3026.25
2022-08-03T05:56:40.922Z,3071.25
2022-08-03T05:57:40.918Z,3093.75
2022-08-03T05:58:40.933Z,3048.75
2022-08-03T05:59:40.903Z,3054.38
2022-08-03T06:00:41.931Z,3020.62
2022-08-03T06:01:40.935Z,2902.50
2022-08-03T06:02:40.896Z,2857.50
2022-08-03T06:03:40.913Z,3037.50
2022-08-03T06:04:40.871Z,3071.25
2022-08-03T06:05:43.241Z,3037.50
2022-08-03T06:06:41.871Z,3043.12
2022-08-03T06:07:40.856Z,2992.50
2022-08-03T06:08:40.899Z,2947.50
2022-08-03T06:10:36.858Z,3060.00
2022-08-03T06:10:41.835Z,3088.12
2022-08-03T06:11:40.830Z,3082.50
2022-08-03T06:12:40.886Z,3088.12
2022-08-03T06:13:40.845Z,3144.38
2022-08-03T06:14:40.813Z,3161.25
2022-08-03T06:15:40.810Z,3206.25
2022-08-03T06:16:40.800Z,3172.50
2022-08-03T06:17:40.807Z,3166.88
2022-08-03T06:18:41.143Z,3223.12
2022-08-03T06:19:40.791Z,2941.88
2022-08-03T06:20:40.781Z,3223.12
2022-08-03T06:21:40.771Z,3217.50
2022-08-03T06:22:50.524Z,3189.38
2022-08-03T06:23:54.257Z,3161.25
2022-08-03T06:24:41.762Z,3144.38
2022-08-03T06:25:41.756Z,2716.88
2022-08-03T06:26:40.746Z,1676.25
2022-08-03T06:27:40.748Z,2553.75
2022-08-03T06:28:51.582Z,2700.00
2022-08-03T06:29:42.750Z,2491.88
2022-08-03T06:30:40.734Z,2486.25
2022-08-03T06:31:40.722Z,2716.88
2022-08-03T06:32:40.711Z,2908.12
2022-08-03T06:34:31.185Z,2925.00
2022-08-03T06:34:41.719Z,2970.00
2022-08-03T06:35:41.574Z,3020.62
2022-08-03T06:36:40.690Z,3003.75
2022-08-03T06:37:40.678Z,3088.12
2022-08-03T06:38:40.707Z,3003.75
2022-08-03T06:39:40.672Z,3195.00
2022-08-03T06:40:40.670Z,3200.62
2022-08-03T06:41:44.806Z,3206.25
2022-08-03T06:42:40.650Z,3189.38
2022-08-03T06:44:04.025Z,3195.00
2022-08-03T06:44:41.681Z,3228.75
2022-08-03T06:45:40.638Z,3211.88
2022-08-03T06:46:40.634Z,3178.12
2022-08-03T06:47:40.626Z,3228.75
2022-08-03T06:48:40.645Z,3240.00
2022-08-03T06:49:40.677Z,3183.75
2022-08-03T06:50:40.606Z,3166.88
2022-08-03T06:52:03.426Z,3273.75
2022-08-03T06:52:41.595Z,3324.38
2022-08-03T06:53:40.623Z,3352.50
2022-08-03T06:54:40.594Z,2902.50
2022-08-03T06:55:42.325Z,2694.38
2022-08-03T06:56:40.591Z,2913.75
2022-08-03T06:57:40.576Z,3105.00
2022-08-03T06:58:40.627Z,3076.88
2022-08-03T07:00:06.415Z,3082.50
2022-08-03T07:00:41.556Z,3166.88
2022-08-03T07:01:40.601Z,3296.25
2022-08-03T07:02:40.545Z,3324.38
2022-08-03T07:03:40.582Z,3307.50
2022-08-03T07:04:41.545Z,3313.12
2022-08-03T07:05:40.552Z,3369.38
2022-08-03T07:06:40.530Z,3307.50
2022-08-03T07:07:40.519Z,3307.50
2022-08-03T07:08:40.541Z,3363.75
2022-08-03T07:09:40.514Z,3391.88
2022-08-03T07:10:40.533Z,3386.25
2022-08-03T07:11:40.493Z,3346.88
2022-08-03T07:12:52.975Z,3240.00
2022-08-03T07:13:41.513Z,3279.38
2022-08-03T07:14:40.480Z,3301.88
2022-08-03T07:15:56.187Z,3386.25
2022-08-03T07:16:41.472Z,3391.88
2022-08-03T07:17:40.483Z,3397.50
2022-08-03T07:18:40.494Z,3408.75
2022-08-03T07:19:40.450Z,3301.88
2022-08-03T07:20:41.455Z,3262.50
2022-08-03T07:21:40.445Z,3262.50
2022-08-03T07:22:40.468Z,3301.88
2022-08-03T07:23:40.528Z,3397.50
2022-08-03T07:24:40.432Z,3335.62
2022-08-03T07:25:40.445Z,3341.25
2022-08-03T07:26:40.419Z,3414.38
2022-08-03T07:27:40.418Z,3346.88
2022-08-03T07:28:40.444Z,2615.62
2022-08-03T07:29:40.404Z,3358.12
2022-08-03T07:30:40.411Z,3391.88
2022-08-03T07:31:40.397Z,3481.88
2022-08-03T07:32:50.306Z,3515.62
2022-08-03T07:33:41.426Z,3470.62
2022-08-03T07:34:40.378Z,3414.38
2022-08-03T07:35:40.385Z,3369.38
2022-08-03T07:36:40.372Z,3391.88
2022-08-03T07:37:40.369Z,3481.88
2022-08-03T07:38:41.405Z,3487.50
2022-08-03T07:39:40.354Z,3538.12
2022-08-03T07:40:45.759Z,3481.88
2022-08-03T07:41:42.340Z,3200.62
2022-08-03T07:42:40.340Z,3127.50
2022-08-03T07:43:40.464Z,3397.50
2022-08-03T07:44:40.360Z,3493.12
2022-08-03T07:45:40.331Z,3571.88
2022-08-03T07:46:40.321Z,3605.62
2022-08-03T07:47:40.326Z,3616.88
2022-08-03T07:48:41.341Z,3600.00
2022-08-03T07:49:40.366Z,3611.25
2022-08-03T07:50:40.304Z,3611.25
2022-08-03T07:51:40.297Z,3588.75
2022-08-03T07:52:40.290Z,3656.25
2022-08-03T07:53:47.858Z,3684.38
2022-08-03T07:54:41.335Z,3667.50
2022-08-03T07:55:40.272Z,3740.62
2022-08-03T07:56:40.268Z,3695.62
2022-08-03T07:57:40.309Z,3735.00
2022-08-03T07:58:40.261Z,3808.12
2022-08-03T07:59:56.628Z,3735.00
2022-08-03T08:00:41.261Z,3706.88
2022-08-03T08:01:40.311Z,3740.62
2022-08-03T08:02:40.248Z,3678.75
2022-08-03T08:03:53.007Z,3645.00
2022-08-03T08:04:41.271Z,3718.12
2022-08-03T08:05:40.245Z,3673.12
2022-08-03T08:06:40.216Z,3628.12
2022-08-03T08:07:40.218Z,3639.38
2022-08-03T08:08:40.207Z,3684.38
2022-08-03T08:09:40.248Z,3639.38
2022-08-03T08:10:40.231Z,3628.12
2022-08-03T08:11:40.246Z,3667.50
2022-08-03T08:12:40.205Z,3768.75
2022-08-03T08:13:40.188Z,3813.75
2022-08-03T08:14:40.211Z,3768.75
2022-08-03T08:15:42.624Z,3746.25
2022-08-03T08:16:40.167Z,3560.62
2022-08-03T08:17:40.158Z,3206.25
2022-08-03T08:18:40.158Z,3560.62
2022-08-03T08:19:41.480Z,3628.12
2022-08-03T08:20:41.170Z,3650.62
2022-08-03T08:21:59.826Z,3628.12
2022-08-03T08:22:41.139Z,3622.50
2022-08-03T08:23:42.531Z,3571.88
2022-08-03T08:24:40.169Z,3420.00
2022-08-03T08:25:40.127Z,3285.00
2022-08-03T08:26:40.127Z,3245.62
2022-08-03T08:28:22.412Z,3155.62
2022-08-03T08:28:41.111Z,2801.25
2022-08-03T08:29:45.893Z,2283.75
2022-08-03T08:30:41.097Z,1867.50
2022-08-03T08:31:40.097Z,1783.12
2022-08-03T08:32:40.089Z,1788.75
2022-08-03T08:34:03.132Z,1783.12
2022-08-03T08:34:42.101Z,1788.75
2022-08-03T08:35:40.078Z,1760.62
2022-08-03T08:36:40.099Z,1715.62
2022-08-03T08:37:40.067Z,1687.50
2022-08-03T08:38:40.065Z,1665.00
2022-08-03T08:39:40.082Z,1631.25
2022-08-03T08:40:40.045Z,1603.12
2022-08-03T08:41:40.058Z,1575.00
2022-08-03T08:42:51.857Z,1546.88
2022-08-03T08:43:42.031Z,1524.38
2022-08-03T08:44:40.053Z,1496.25
2022-08-03T08:45:40.027Z,1485.00
2022-08-03T08:46:40.028Z,1496.25
2022-08-03T08:47:50.983Z,1496.25
2022-08-03T08:48:41.011Z,1462.50
2022-08-03T08:49:40.108Z,1440.00
2022-08-03T08:50:40.011Z,1440.00
2022-08-03T08:51:54.574Z,1451.25
2022-08-03T08:52:40.989Z,1479.38
2022-08-03T08:53:39.998Z,1479.38
2022-08-03T08:54:40.036Z,1434.38
2022-08-03T08:55:57.895Z,1310.62
2022-08-03T08:56:40.969Z,1344.38
2022-08-03T08:57:43.268Z,1321.88
2022-08-03T08:58:40.962Z,1293.75
2022-08-03T08:59:47.989Z,1248.75
2022-08-03T09:00:40.978Z,1220.62
2022-08-03T09:01:39.949Z,1192.50
2022-08-03T09:02:39.944Z,1170.00
2022-08-03T09:03:39.937Z,1158.75
2022-08-03T09:04:39.936Z,1153.12
2022-08-03T09:05:55.463Z,1141.88
2022-08-03T09:06:53.702Z,1136.25
2022-08-03T09:07:40.927Z,1125.00
2022-08-03T09:08:39.908Z,1125.00
2022-08-03T09:10:10.542Z,1119.38
2022-08-03T09:10:40.932Z,1113.75
2022-08-03T09:11:54.403Z,1125.00
2022-08-03T09:12:42.183Z,1119.38
2022-08-03T09:13:40.888Z,1125.00
2022-08-03T09:14:54.875Z,1136.25
2022-08-03T09:15:41.897Z,1153.12
2022-08-03T09:16:40.868Z,1170.00
2022-08-03T09:17:39.952Z,1203.75
2022-08-03T09:18:39.857Z,1237.50
2022-08-03T09:19:39.850Z,1282.50
2022-08-03T09:20:40.868Z,1344.38
2022-08-03T09:21:39.841Z,1400.62
2022-08-03T09:22:39.836Z,1479.38
2022-08-03T09:23:51.716Z,1558.12
2022-08-03T09:24:41.742Z,1631.25
2022-08-03T09:25:40.851Z,1670.62
2022-08-03T09:26:39.813Z,1766.25
2022-08-03T09:27:39.809Z,1777.50
2022-08-03T09:29:01.681Z,1693.12
2022-08-03T09:29:40.807Z,1693.12
2022-08-03T09:30:39.838Z,1541.25
2022-08-03T09:31:39.787Z,1350.00
2022-08-03T09:32:39.791Z,1063.12
2022-08-03T09:33:39.774Z,810.00
2022-08-03T09:34:39.769Z,720.00
2022-08-03T09:35:57.466Z,686.25
2022-08-03T09:36:41.758Z,652.50
2022-08-03T09:38:12.161Z,624.38
2022-08-03T09:38:40.742Z,596.25
2022-08-03T09:39:41.361Z,573.75
2022-08-03T09:40:39.762Z,556.88
2022-08-03T09:41:39.729Z,545.62
2022-08-03T09:42:39.725Z,528.75
2022-08-03T09:43:39.717Z,517.50
2022-08-03T09:44:39.711Z,506.25
2022-08-03T09:45:39.731Z,495.00
2022-08-03T09:46:39.698Z,489.38
2022-08-03T09:47:44.632Z,478.12
2022-08-03T09:48:40.681Z,466.88
2022-08-03T09:49:41.053Z,461.25
2022-08-03T09:50:39.691Z,450.00
2022-08-03T09:52:32.073Z,444.38
2022-08-03T09:52:51.934Z,444.38
2022-08-03T09:53:41.724Z,438.75
2022-08-03T09:54:40.644Z,433.12
2022-08-03T09:56:34.415Z,433.12
2022-08-03T09:56:40.632Z,427.50
2022-08-03T09:57:39.620Z,427.50
2022-08-03T09:58:39.614Z,427.50
2022-08-03T09:59:41.270Z,427.50
2022-08-03T10:00:39.710Z,421.88
2022-08-03T10:01:39.694Z,421.88
2022-08-03T10:02:39.593Z,421.88
2022-08-03T10:03:46.991Z,421.88
2022-08-03T10:04:40.576Z,421.88
2022-08-03T10:05:39.600Z,416.25
2022-08-03T10:06:39.566Z,416.25
2022-08-03T10:07:39.560Z,416.25
2022-08-03T10:08:40.549Z,416.25
2022-08-03T10:09:39.543Z,416.25
2022-08-03T10:10:39.564Z,405.00
2022-08-03T10:11:42.136Z,410.62
2022-08-03T10:12:40.529Z,410.62
2022-08-03T10:13:39.525Z,410.62
2022-08-03T10:14:39.514Z,410.62
2022-08-03T10:16:23.117Z,410.62
2022-08-03T10:16:40.500Z,405.00
2022-08-03T10:17:40.406Z,410.62
2022-08-03T10:18:40.481Z,410.62
2022-08-03T10:19:39.477Z,410.62
2022-08-03T10:20:39.495Z,410.62
2022-08-03T10:21:39.470Z,410.62
2022-08-03T10:22:39.455Z,405.00
2022-08-03T10:23:39.450Z,410.62
2022-08-03T10:24:39.446Z,410.62
2022-08-03T10:25:39.462Z,410.62
2022-08-03T10:26:39.445Z,405.00
2022-08-03T10:27:40.425Z,410.62
2022-08-03T10:28:44.520Z,410.62
2022-08-03T10:29:41.410Z,399.38
2022-08-03T10:30:39.431Z,399.38
2022-08-03T10:31:39.394Z,399.38
2022-08-03T10:32:40.389Z,388.12
2022-08-03T10:33:50.232Z,393.75
2022-08-03T10:34:44.489Z,393.75
2022-08-03T10:35:40.402Z,399.38
2022-08-03T10:36:39.361Z,399.38
2022-08-03T10:37:39.352Z,405.00
2022-08-03T10:38:40.344Z,405.00
2022-08-03T10:39:39.339Z,405.00
2022-08-03T10:40:48.621Z,405.00
2022-08-03T10:41:41.326Z,405.00
2022-08-03T10:42:39.315Z,399.38
2022-08-03T10:43:39.310Z,399.38
2022-08-03T10:44:39.299Z,399.38
2022-08-03T10:45:39.296Z,399.38
2022-08-03T10:46:44.142Z,399.38
2022-08-03T10:47:41.276Z,399.38
2022-08-03T10:48:39.274Z,393.75
2022-08-03T10:49:39.332Z,393.75
2022-08-03T10:50:39.260Z,393.75
2022-08-03T10:51:39.281Z,393.75
2022-08-03T10:52:41.673Z,393.75
2022-08-03T10:53:40.238Z,393.75
2022-08-03T10:54:39.233Z,393.75
2022-08-03T10:55:39.247Z,393.75
2022-08-03T10:56:48.672Z,393.75
2022-08-03T10:57:40.210Z,393.75
2022-08-03T10:58:53.325Z,388.12
2022-08-03T10:59:40.200Z,388.12
2022-08-03T11:00:39.237Z,388.12
2022-08-03T11:01:58.324Z,388.12
2022-08-03T11:02:40.173Z,382.50
2022-08-03T11:03:39.167Z,382.50
2022-08-03T11:04:39.159Z,382.50
2022-08-03T11:05:39.152Z,382.50
2022-08-03T11:06:39.175Z,382.50
2022-08-03T11:07:39.138Z,382.50
2022-08-03T11:08:39.132Z,382.50
2022-08-03T11:09:39.125Z,382.50
2022-08-03T11:10:40.146Z,382.50
2022-08-03T11:11:39.109Z,382.50
2022-08-03T11:12:39.109Z,382.50
2022-08-03T11:13:39.099Z,382.50
2022-08-03T11:14:39.091Z,382.50
2022-08-03T11:15:39.111Z,382.50
2022-08-03T11:16:39.077Z,382.50
2022-08-03T11:17:46.433Z,382.50
2022-08-03T11:18:40.058Z,376.88
2022-08-03T11:19:39.067Z,376.88
2022-08-03T11:20:40.071Z,382.50
2022-08-03T11:21:39.040Z,382.50
2022-08-03T11:22:39.035Z,382.50
2022-08-03T11:24:03.421Z,382.50
2022-08-03T11:24:40.018Z,382.50
2022-08-03T11:25:54.637Z,376.88
2022-08-03T11:26:39.998Z,371.25
2022-08-03T11:27:39.998Z,376.88
2022-08-03T11:28:38.998Z,376.88
2022-08-03T11:29:38.982Z,371.25
2022-08-03T11:30:39.000Z,371.25
2022-08-03T11:31:49.961Z,371.25
2022-08-03T11:32:46.474Z,376.88
2022-08-03T11:33:39.958Z,376.88
2022-08-03T11:34:38.949Z,382.50
2022-08-03T11:35:38.941Z,388.12
2022-08-03T11:36:38.959Z,388.12
2022-08-03T11:37:38.960Z,393.75
2022-08-03T11:38:39.920Z,399.38
2022-08-03T11:39:38.915Z,405.00
2022-08-03T11:40:38.907Z,410.62
2022-08-03T11:41:44.942Z,416.25
2022-08-03T11:42:39.891Z,405.00
2022-08-03T11:43:38.872Z,376.88
2022-08-03T11:44:39.872Z,376.88
2022-08-03T11:45:38.865Z,376.88
2022-08-03T11:46:38.887Z,393.75
2022-08-03T11:47:50.150Z,416.25
2022-08-03T11:48:39.856Z,410.62
2022-08-03T11:49:38.893Z,433.12
2022-08-03T11:50:38.831Z,433.12
2022-08-03T11:51:38.892Z,382.50
2022-08-03T11:52:38.819Z,416.25
2022-08-03T11:53:42.161Z,388.12
2022-08-03T11:54:38.827Z,371.25
2022-08-03T11:55:38.801Z,382.50
2022-08-03T11:56:38.815Z,405.00
2022-08-03T11:58:58.315Z,444.38
2022-08-03T11:59:01.067Z,478.12
2022-08-03T11:59:39.753Z,478.12
2022-08-03T12:00:40.670Z,427.50
2022-08-03T12:01:38.783Z,405.00
2022-08-03T12:02:38.750Z,405.00
2022-08-03T12:03:38.875Z,421.88
2022-08-03T12:04:38.743Z,416.25
2022-08-03T12:05:38.749Z,388.12
2022-08-03T12:06:38.858Z,410.62
2022-08-03T12:08:04.373Z,421.88
2022-08-03T12:08:39.708Z,427.50
2022-08-03T12:09:38.694Z,410.62
2022-08-03T12:10:38.743Z,438.75
2022-08-03T12:11:38.668Z,478.12
2022-08-03T12:12:45.908Z,472.50
2022-08-03T12:14:27.376Z,444.38
2022-08-03T12:14:51.094Z,444.38
2022-08-03T12:15:39.672Z,438.75
2022-08-03T12:16:38.650Z,438.75
2022-08-03T12:17:38.635Z,438.75
2022-08-03T12:18:38.646Z,450.00
2022-08-03T12:19:38.620Z,416.25
2022-08-03T12:20:38.646Z,410.62
2022-08-03T12:21:38.604Z,444.38
2022-08-03T12:22:38.599Z,438.75
2022-08-03T12:23:38.595Z,427.50
2022-08-03T12:24:38.586Z,472.50
2022-08-03T12:25:40.018Z,545.62
2022-08-03T12:26:38.586Z,551.25
2022-08-03T12:27:38.564Z,506.25
2022-08-03T12:28:39.128Z,500.62
2022-08-03T12:29:38.552Z,528.75
2022-08-03T12:30:38.569Z,528.75
2022-08-03T12:31:38.535Z,528.75
2022-08-03T12:32:38.529Z,528.75
2022-08-03T12:33:38.522Z,511.88